Portada
METAR-TAF:

METAR-TAF

Aeropuertos :

Aeropuerto de Berlín-Tegel

Berlín, Alemania

latitud: 52-34N, longitud: 013-19E, altitud: 37 m

Observación

El informe se hizo hace 10 horas y 29 minutos, a las 05:20 UTC
Viento 5 kt del noroeste, variando entre oeste-suroeste y norte-noroeste
Temperatura 16°C
Humedad 77%
Presión 1021 hPa
Visibilidad 10 km o más
sin nubes por debajo de 1500 m y sin presencia de cumulonimbus.

METAR: EDDT 210520Z 31005KT 250V340 CAVOK 16/12 Q1021 NOSIG

Hora: 17:49 (15:49 UTC)

Pronóstico

El informe se hizo hace 10 horas y 49 minutos, a las 05:00 UTC
Pronóstico válido del 21 a las 06 UTC al 22 a las 06 UTC
Viento 6 kt del noroeste
Visibilidad 10 km o más
Nubes dispersas a una altura de 3500 ft
Evolucionando progresivamente
del 21 a las 16 UTC al 21 a las 19 UTC
Viento 4 kt del norte

TAF: EDDT 210500Z 2106/2206 31006KT 9999 SCT035 BECMG 2116/2119 01004KT

Observaciones y pronósticos meteorológicos de más de 4000 aeropuertos (mensajes METAR y TAF).

Los puntos amarillos y rojos representan las estaciones disponibles.

Ponga el ratón en el punto deseado para ver el nombre de la estación.

Haga clic para ver las observaciones y los pronósticos meteorológicos.

Para cambiar el mapa : haga clic en los botones verdes con una cruz de color negro para hacer un zoom, en el botón verde con un guión para alejar o en las flechas verdes para mapas adyacentes.


METAR-TAF: